createdAt,value
2017-09-07T00:01:05.313Z,78.09
2017-09-07T00:03:32.711Z,78.52
2017-09-07T00:06:00.114Z,78.66
2017-09-07T00:08:27.510Z,78.15
2017-09-07T00:10:54.902Z,78.25
2017-09-07T00:13:22.299Z,79.16
2017-09-07T00:15:49.702Z,79.96
2017-09-07T00:18:17.099Z,79.54
2017-09-07T00:20:44.503Z,79.35
2017-09-07T00:23:11.882Z,79.70
2017-09-07T00:25:39.296Z,79.80
2017-09-07T00:28:06.679Z,80.59
2017-09-07T00:30:34.170Z,81.17
2017-09-07T00:33:01.562Z,81.42
2017-09-07T00:35:28.961Z,81.27
2017-09-07T00:37:58.351Z,81.16
2017-09-07T00:40:25.847Z,80.84
2017-09-07T00:42:53.253Z,80.73
2017-09-07T00:45:20.642Z,80.90
2017-09-07T00:47:48.070Z,81.78
2017-09-07T00:50:15.458Z,82.54
2017-09-07T00:52:42.858Z,82.18
2017-09-07T00:55:10.262Z,82.67
2017-09-07T00:57:37.663Z,83.34
2017-09-07T01:00:05.065Z,83.54
2017-09-07T01:02:32.462Z,84.14
2017-09-07T01:04:59.846Z,83.78
2017-09-07T01:07:27.261Z,83.61
2017-09-07T01:09:54.642Z,83.97
2017-09-07T01:12:22.050Z,84.49
2017-09-07T01:14:49.438Z,84.19
2017-09-07T01:17:16.858Z,84.49
2017-09-07T01:19:44.335Z,84.41
2017-09-07T01:22:11.789Z,84.61
2017-09-07T01:24:39.130Z,83.97
2017-09-07T01:27:06.534Z,84.04
2017-09-07T01:29:33.936Z,83.62
2017-09-07T01:32:01.325Z,83.68
2017-09-07T01:34:28.714Z,84.15
2017-09-07T01:36:56.111Z,84.70
2017-09-07T01:39:23.499Z,84.55
2017-09-07T01:41:50.890Z,84.60
2017-09-07T01:44:18.296Z,84.92
2017-09-07T01:46:45.682Z,84.01
2017-09-07T01:49:13.086Z,83.13
2017-09-07T01:51:40.475Z,82.88
2017-09-07T01:56:35.127Z,83.31
2017-09-07T01:59:02.534Z,83.41
2017-09-07T02:01:29.969Z,83.76
2017-09-07T02:03:57.379Z,83.65
2017-09-07T02:06:24.872Z,82.94
2017-09-07T02:08:52.274Z,83.09
2017-09-07T02:11:19.674Z,83.91
2017-09-07T02:13:47.081Z,84.41
2017-09-07T02:16:14.471Z,85.07
2017-09-07T02:18:41.867Z,85.18
2017-09-07T02:21:09.277Z,84.33
2017-09-07T02:23:36.662Z,83.46
2017-09-07T02:26:04.074Z,84.11
2017-09-07T02:28:31.511Z,84.08
2017-09-07T02:30:58.875Z,84.48
2017-09-07T02:33:26.291Z,84.04
2017-09-07T02:35:53.668Z,83.24
2017-09-07T02:38:21.094Z,83.67
2017-09-07T02:40:48.490Z,83.16
2017-09-07T02:43:15.893Z,83.12
2017-09-07T02:45:43.294Z,83.66
2017-09-07T02:48:10.691Z,84.15
2017-09-07T02:50:38.091Z,84.30
2017-09-07T02:53:05.486Z,83.72
2017-09-07T02:55:32.885Z,82.84
2017-09-07T02:58:00.300Z,83.32
2017-09-07T03:00:27.702Z,83.30
2017-09-07T03:02:55.094Z,83.99
2017-09-07T03:05:22.507Z,84.10
2017-09-07T03:07:49.894Z,84.18
2017-09-07T03:10:17.302Z,84.19
2017-09-07T03:12:44.770Z,83.55
2017-09-07T03:15:12.166Z,83.35
2017-09-07T03:17:39.562Z,83.61
2017-09-07T03:20:06.958Z,83.28
2017-09-07T03:22:34.352Z,84.05
2017-09-07T03:25:01.748Z,84.03
2017-09-07T03:27:29.134Z,83.01
2017-09-07T03:29:56.530Z,82.24
2017-09-07T03:32:23.926Z,82.30
2017-09-07T03:34:51.327Z,82.00
2017-09-07T03:37:18.711Z,82.30
2017-09-07T03:39:46.102Z,82.38
2017-09-07T03:42:13.502Z,82.22
2017-09-07T03:44:40.895Z,81.65
2017-09-07T03:47:08.308Z,81.80
2017-09-07T03:49:35.690Z,81.83
2017-09-07T03:52:03.162Z,82.50
2017-09-07T03:54:30.556Z,82.74
2017-09-07T03:56:57.982Z,81.94
2017-09-07T03:59:25.378Z,82.32
2017-09-07T04:01:52.804Z,82.69
2017-09-07T04:04:20.190Z,82.60
2017-09-07T04:06:47.603Z,82.41
2017-09-07T04:09:14.991Z,82.65
2017-09-07T04:11:42.391Z,83.01
2017-09-07T04:14:09.794Z,83.34
2017-09-07T04:16:37.192Z,83.30
2017-09-07T04:19:04.586Z,83.70
2017-09-07T04:21:31.974Z,84.31
2017-09-07T04:23:59.374Z,83.63
2017-09-07T04:26:26.830Z,83.16
2017-09-07T04:28:54.214Z,81.92
2017-09-07T04:31:21.619Z,81.51
2017-09-07T04:33:49.001Z,81.90
2017-09-07T04:36:16.405Z,83.04
2017-09-07T04:38:43.843Z,82.42
2017-09-07T04:41:11.210Z,82.41
2017-09-07T04:43:38.610Z,83.26
2017-09-07T04:46:06.002Z,82.68
2017-09-07T04:48:33.411Z,82.70
2017-09-07T04:51:00.816Z,82.65
2017-09-07T04:53:28.201Z,83.31
2017-09-07T04:55:55.598Z,83.86
2017-09-07T04:58:23.062Z,83.34
2017-09-07T05:00:50.547Z,82.77
2017-09-07T05:03:17.971Z,82.95
2017-09-07T05:05:45.431Z,83.23
2017-09-07T05:08:12.851Z,82.61
2017-09-07T05:10:40.259Z,84.10
2017-09-07T05:13:07.638Z,83.99
2017-09-07T05:15:35.038Z,83.70
2017-09-07T05:18:02.425Z,83.40
2017-09-07T05:20:29.827Z,83.47
2017-09-07T05:22:57.314Z,83.80
2017-09-07T05:25:24.712Z,83.61
2017-09-07T05:27:52.122Z,83.33
2017-09-07T05:30:19.524Z,82.69
2017-09-07T05:32:46.906Z,82.11
2017-09-07T05:35:14.317Z,81.77
2017-09-07T05:37:41.711Z,82.08
2017-09-07T05:40:09.130Z,81.28
2017-09-07T05:42:36.527Z,82.96
2017-09-07T05:45:03.919Z,82.33
2017-09-07T05:47:31.328Z,81.64
2017-09-07T05:49:58.722Z,81.77
2017-09-07T05:52:26.289Z,80.86
2017-09-07T05:54:53.690Z,80.98
2017-09-07T05:57:21.070Z,80.63
2017-09-07T05:59:48.463Z,79.53
2017-09-07T06:02:15.882Z,78.86
2017-09-07T06:04:43.296Z,77.73
2017-09-07T06:07:10.706Z,75.68
2017-09-07T06:09:38.091Z,74.71
2017-09-07T06:12:05.508Z,74.72
2017-09-07T06:14:32.891Z,75.20
2017-09-07T06:17:00.295Z,77.56
2017-09-07T06:19:27.693Z,77.38
2017-09-07T06:21:55.098Z,78.02
2017-09-07T06:24:22.505Z,79.10
2017-09-07T06:26:49.890Z,79.06
2017-09-07T06:29:17.292Z,78.92
2017-09-07T06:31:44.877Z,78.65
2017-09-07T06:34:12.265Z,78.94
2017-09-07T06:36:39.691Z,78.48
2017-09-07T06:41:40.818Z,78.34
2017-09-07T06:44:08.206Z,78.19
2017-09-07T06:46:35.594Z,78.45
2017-09-07T06:49:02.986Z,78.01
2017-09-07T06:51:30.401Z,77.94
2017-09-07T06:53:57.823Z,77.69
2017-09-07T06:56:25.211Z,77.97
2017-09-07T06:58:52.610Z,77.32
2017-09-07T07:01:19.995Z,77.02
2017-09-07T07:03:47.390Z,77.69
2017-09-07T07:06:14.774Z,77.26
2017-09-07T07:08:42.162Z,76.92
2017-09-07T07:11:09.547Z,76.73
2017-09-07T07:13:36.954Z,76.29
2017-09-07T07:16:04.376Z,75.14
2017-09-07T07:18:31.836Z,75.36
2017-09-07T07:20:59.259Z,74.74
2017-09-07T07:23:26.661Z,74.82
2017-09-07T07:25:54.042Z,74.34
2017-09-07T07:28:21.498Z,74.30
2017-09-07T07:30:48.961Z,72.92
2017-09-07T07:33:16.346Z,71.72
2017-09-07T07:35:43.739Z,71.17
2017-09-07T07:38:11.144Z,70.26
2017-09-07T07:40:38.555Z,71.39
2017-09-07T07:43:05.942Z,71.01
2017-09-07T07:45:33.326Z,70.18
2017-09-07T07:48:00.732Z,69.37
2017-09-07T07:50:28.121Z,69.84
2017-09-07T07:52:55.521Z,70.16
2017-09-07T07:55:22.923Z,70.60
2017-09-07T07:57:50.302Z,70.96
2017-09-07T08:00:17.694Z,71.35
2017-09-07T08:02:45.087Z,71.71
2017-09-07T08:05:12.478Z,71.94
2017-09-07T08:07:39.863Z,70.73
2017-09-07T08:10:07.255Z,69.26
2017-09-07T08:12:34.634Z,69.79
2017-09-07T08:15:02.029Z,69.30
2017-09-07T08:17:29.523Z,68.04
2017-09-07T08:19:56.929Z,68.66
2017-09-07T08:22:24.303Z,68.90
2017-09-07T08:24:51.722Z,68.68
2017-09-07T08:27:19.105Z,70.24
2017-09-07T08:29:46.494Z,69.02
2017-09-07T08:32:13.883Z,70.12
2017-09-07T08:34:41.283Z,69.86
2017-09-07T08:37:08.760Z,69.61
2017-09-07T08:39:36.214Z,68.71
2017-09-07T08:42:03.616Z,68.61
2017-09-07T08:44:31.013Z,69.01
2017-09-07T08:46:58.402Z,67.76
2017-09-07T08:49:25.792Z,68.29
2017-09-07T08:51:53.183Z,68.39
2017-09-07T08:54:20.650Z,68.00
2017-09-07T08:56:48.042Z,68.67
2017-09-07T08:59:15.451Z,69.77
2017-09-07T09:01:42.836Z,69.16
2017-09-07T09:04:10.238Z,68.61
2017-09-07T09:06:37.635Z,67.72
2017-09-07T09:09:05.037Z,67.92
2017-09-07T09:11:32.437Z,66.30
2017-09-07T09:13:59.819Z,66.15
2017-09-07T09:16:27.262Z,66.48
2017-09-07T09:18:54.642Z,66.47
2017-09-07T09:21:22.038Z,65.88
2017-09-07T09:23:49.433Z,66.53
2017-09-07T09:26:16.838Z,66.56
2017-09-07T09:28:44.249Z,65.70
2017-09-07T09:31:11.639Z,65.53
2017-09-07T09:33:39.038Z,65.99
2017-09-07T09:36:06.504Z,67.40
2017-09-07T09:41:25.587Z,63.53
2017-09-07T09:43:52.975Z,64.03
2017-09-07T09:46:20.359Z,64.42
2017-09-07T09:48:47.846Z,62.74
2017-09-07T09:51:15.239Z,62.14
2017-09-07T09:53:42.635Z,63.16
2017-09-07T09:56:10.026Z,62.88
2017-09-07T09:58:37.423Z,61.42
2017-09-07T10:01:04.847Z,61.93
2017-09-07T10:03:32.255Z,59.92
2017-09-07T10:05:59.636Z,58.85
2017-09-07T10:08:27.103Z,57.83
2017-09-07T10:10:54.486Z,57.07
2017-09-07T10:13:21.890Z,56.98
2017-09-07T10:15:49.284Z,57.65
2017-09-07T10:18:16.659Z,56.24
2017-09-07T10:20:44.047Z,56.96
2017-09-07T10:23:11.556Z,58.47
2017-09-07T10:25:38.959Z,59.98
2017-09-07T10:28:06.358Z,60.57
2017-09-07T10:30:33.743Z,61.48
2017-09-07T10:33:01.142Z,61.86
2017-09-07T10:35:28.614Z,61.32
2017-09-07T10:37:56.007Z,60.01
2017-09-07T10:40:23.395Z,59.97
2017-09-07T10:42:50.799Z,59.03
2017-09-07T10:45:18.183Z,59.58
2017-09-07T10:47:45.563Z,58.81
2017-09-07T10:50:12.970Z,58.66
2017-09-07T10:52:40.359Z,58.57
2017-09-07T10:55:07.765Z,57.13
2017-09-07T10:57:35.147Z,56.96
2017-09-07T11:00:02.590Z,56.20
2017-09-07T11:02:29.981Z,58.17
2017-09-07T11:04:57.366Z,57.50
2017-09-07T11:07:24.765Z,56.51
2017-09-07T11:09:52.202Z,56.35
2017-09-07T11:12:19.583Z,56.34
2017-09-07T11:14:46.979Z,55.67
2017-09-07T11:17:14.467Z,55.59
2017-09-07T11:19:41.866Z,56.53
2017-09-07T11:22:09.270Z,57.27
2017-09-07T11:24:36.675Z,56.77
2017-09-07T11:27:04.063Z,55.60
2017-09-07T11:29:31.460Z,56.78
2017-09-07T11:31:58.851Z,56.28
2017-09-07T11:34:26.246Z,58.20
2017-09-07T11:36:53.733Z,57.52
2017-09-07T11:39:21.122Z,58.12
2017-09-07T11:41:48.524Z,58.56
2017-09-07T11:44:15.911Z,58.50
2017-09-07T11:46:43.311Z,56.95
2017-09-07T11:49:10.701Z,57.15
2017-09-07T11:51:38.082Z,56.91
2017-09-07T11:54:05.486Z,57.67
2017-09-07T11:56:32.880Z,56.73
2017-09-07T11:59:00.281Z,56.85
2017-09-07T12:01:27.732Z,57.01
2017-09-07T12:03:55.111Z,56.68
2017-09-07T12:06:22.504Z,57.37
2017-09-07T12:08:49.903Z,54.99
2017-09-07T12:11:17.311Z,54.36
2017-09-07T12:13:44.700Z,52.30
2017-09-07T12:16:12.115Z,51.33
2017-09-07T12:18:39.520Z,50.33
2017-09-07T12:21:06.904Z,50.36
2017-09-07T12:23:34.393Z,50.26
2017-09-07T12:26:01.770Z,49.70
2017-09-07T12:28:29.166Z,50.36
2017-09-07T12:30:56.567Z,49.75
2017-09-07T12:33:23.963Z,50.91
2017-09-07T12:35:51.350Z,51.67
2017-09-07T12:38:18.741Z,51.50
2017-09-07T12:40:46.135Z,51.98
2017-09-07T12:43:13.535Z,52.13
2017-09-07T12:45:40.928Z,55.17
2017-09-07T12:48:08.334Z,56.42
2017-09-07T12:50:35.786Z,57.52
2017-09-07T12:53:03.252Z,58.58
2017-09-07T12:55:30.635Z,58.10
2017-09-07T12:57:58.048Z,59.19
2017-09-07T13:00:25.515Z,59.55
2017-09-07T13:02:52.907Z,58.99
2017-09-07T13:05:20.314Z,58.12
2017-09-07T13:07:47.711Z,59.04
2017-09-07T13:10:15.263Z,58.66
2017-09-07T13:12:42.699Z,58.79
2017-09-07T13:15:10.078Z,58.55
2017-09-07T13:17:37.501Z,59.42
2017-09-07T13:20:05.070Z,59.24
2017-09-07T13:22:32.503Z,61.46
2017-09-07T13:24:59.852Z,57.99
2017-09-07T13:27:27.334Z,60.79
2017-09-07T13:29:54.719Z,61.83
2017-09-07T13:32:22.127Z,62.00
2017-09-07T13:34:49.547Z,65.33
2017-09-07T13:37:16.935Z,64.08
2017-09-07T13:39:44.339Z,65.53
2017-09-07T13:42:11.734Z,66.86
2017-09-07T13:44:39.140Z,66.48
2017-09-07T13:47:06.530Z,67.32
2017-09-07T13:49:33.948Z,67.17
2017-09-07T13:52:01.366Z,65.54
2017-09-07T13:54:28.754Z,68.10
2017-09-07T13:56:56.150Z,68.50
2017-09-07T13:59:23.560Z,67.39
2017-09-07T14:01:51.064Z,66.58
2017-09-07T14:04:18.430Z,66.45
2017-09-07T14:06:45.834Z,67.01
2017-09-07T14:09:13.222Z,66.56
2017-09-07T14:11:40.611Z,66.95
2017-09-07T14:14:07.998Z,67.77
2017-09-07T14:16:35.455Z,67.01
2017-09-07T14:19:02.914Z,65.90
2017-09-07T14:21:30.304Z,65.44
2017-09-07T14:23:57.690Z,68.01
2017-09-07T14:26:25.076Z,67.17
2017-09-07T14:28:52.543Z,65.50
2017-09-07T14:31:19.944Z,65.37
2017-09-07T14:33:47.347Z,64.82
2017-09-07T14:36:14.783Z,64.65
2017-09-07T14:38:42.203Z,63.63
2017-09-07T14:41:09.595Z,64.83
2017-09-07T14:43:36.986Z,63.28
2017-09-07T14:46:04.423Z,65.07
2017-09-07T14:48:31.899Z,62.86
2017-09-07T14:50:59.282Z,63.59
2017-09-07T14:53:26.674Z,63.86
2017-09-07T14:55:54.067Z,63.26
2017-09-07T14:58:21.475Z,60.44
2017-09-07T15:00:48.882Z,60.64
2017-09-07T15:03:16.284Z,62.42
2017-09-07T15:05:43.671Z,62.62
2017-09-07T15:08:11.082Z,63.14
2017-09-07T15:10:38.466Z,64.96
2017-09-07T15:13:05.863Z,63.14
2017-09-07T15:15:33.302Z,61.42
2017-09-07T15:18:00.687Z,60.24
2017-09-07T15:20:28.095Z,61.42
2017-09-07T15:22:55.496Z,61.14
2017-09-07T15:25:22.890Z,61.07
2017-09-07T15:27:50.276Z,62.41
2017-09-07T15:30:17.735Z,61.12
2017-09-07T15:32:45.123Z,61.62
2017-09-07T15:35:12.514Z,61.69
2017-09-07T15:37:39.918Z,61.38
2017-09-07T15:40:07.310Z,62.56
2017-09-07T15:42:34.712Z,61.67
2017-09-07T15:45:02.128Z,61.90
2017-09-07T15:47:29.572Z,61.77
2017-09-07T15:49:56.971Z,61.86
2017-09-07T15:52:24.375Z,61.94
2017-09-07T15:54:51.765Z,62.36
2017-09-07T15:57:19.171Z,63.23
2017-09-07T15:59:46.569Z,62.82
2017-09-07T16:02:14.021Z,62.99
2017-09-07T16:04:41.418Z,62.25
2017-09-07T16:07:08.825Z,63.26
2017-09-07T16:09:36.292Z,64.34
2017-09-07T16:12:03.696Z,63.63
2017-09-07T16:14:31.079Z,64.96
2017-09-07T16:16:58.469Z,65.40
2017-09-07T16:19:25.859Z,66.07
2017-09-07T16:21:53.258Z,65.29
2017-09-07T16:24:20.647Z,66.82
2017-09-07T16:26:48.042Z,67.32
2017-09-07T16:29:15.474Z,66.82
2017-09-07T16:31:42.930Z,66.74
2017-09-07T16:34:10.322Z,67.18
2017-09-07T16:36:37.711Z,67.54
2017-09-07T16:39:05.102Z,67.00
2017-09-07T16:41:32.499Z,68.40
2017-09-07T16:43:59.907Z,69.58
2017-09-07T16:46:27.294Z,69.55
2017-09-07T16:48:54.692Z,69.69
2017-09-07T16:51:22.075Z,69.70
2017-09-07T16:53:49.470Z,69.47
2017-09-07T16:56:16.850Z,70.04
2017-09-07T16:58:44.275Z,68.78
2017-09-07T17:01:11.698Z,68.65
2017-09-07T17:03:39.095Z,69.07
2017-09-07T17:06:06.478Z,67.27
2017-09-07T17:08:35.875Z,67.63
2017-09-07T17:11:03.262Z,68.65
2017-09-07T17:13:30.659Z,66.88
2017-09-07T17:15:58.042Z,67.20
2017-09-07T17:18:25.542Z,66.79
2017-09-07T17:20:52.962Z,66.93
2017-09-07T17:23:20.350Z,65.59
2017-09-07T17:25:47.743Z,66.50
2017-09-07T17:28:16.196Z,67.41
2017-09-07T17:30:43.586Z,67.67
2017-09-07T17:33:10.978Z,67.06
2017-09-07T17:35:38.372Z,67.18
2017-09-07T17:38:05.754Z,66.72
2017-09-07T17:40:33.164Z,67.20
2017-09-07T17:43:00.546Z,67.30
2017-09-07T17:45:27.975Z,67.55
2017-09-07T17:47:55.368Z,68.08
2017-09-07T17:50:22.767Z,67.66
2017-09-07T17:52:50.151Z,68.06
2017-09-07T17:55:17.551Z,68.89
2017-09-07T17:57:44.931Z,68.66
2017-09-07T18:00:12.351Z,69.05
2017-09-07T18:02:39.767Z,68.80
2017-09-07T18:05:07.206Z,68.12
2017-09-07T18:07:34.595Z,68.73
2017-09-07T18:10:01.984Z,69.21
2017-09-07T18:12:29.378Z,69.71
2017-09-07T18:14:56.783Z,69.56
2017-09-07T18:17:24.175Z,69.59
2017-09-07T18:19:51.584Z,71.02
2017-09-07T18:22:18.979Z,70.32
2017-09-07T18:24:46.395Z,71.24
2017-09-07T18:27:13.791Z,71.52
2017-09-07T18:29:41.176Z,70.66
2017-09-07T18:32:10.468Z,70.31
2017-09-07T18:34:37.935Z,70.54
2017-09-07T18:37:05.326Z,70.41
2017-09-07T18:39:32.720Z,70.23
2017-09-07T18:42:00.128Z,69.58
2017-09-07T18:44:27.517Z,70.35
2017-09-07T18:46:54.903Z,70.46
2017-09-07T18:49:22.391Z,70.15
2017-09-07T18:51:49.799Z,70.06
2017-09-07T18:54:17.183Z,70.21
2017-09-07T18:56:44.633Z,70.49
2017-09-07T18:59:12.031Z,70.13
2017-09-07T19:01:39.419Z,70.49
2017-09-07T19:04:06.903Z,70.69
2017-09-07T19:06:34.302Z,70.87
2017-09-07T19:09:01.798Z,70.67
2017-09-07T19:11:29.204Z,70.93
2017-09-07T19:13:56.600Z,71.32
2017-09-07T19:16:24.084Z,71.45
2017-09-07T19:18:51.474Z,71.37
2017-09-07T19:21:18.868Z,71.42
2017-09-07T19:23:46.261Z,71.43
2017-09-07T19:26:13.646Z,71.43
2017-09-07T19:28:41.056Z,72.95
2017-09-07T19:31:08.450Z,72.75
2017-09-07T19:33:35.839Z,72.08
2017-09-07T19:36:03.222Z,71.88
2017-09-07T19:38:30.619Z,72.12
2017-09-07T19:40:58.007Z,72.17
2017-09-07T19:43:25.407Z,71.46
2017-09-07T19:45:52.794Z,70.70
2017-09-07T19:48:20.198Z,70.25
2017-09-07T19:50:47.862Z,70.75
2017-09-07T19:53:15.251Z,70.06
2017-09-07T19:55:42.733Z,70.18
2017-09-07T19:58:10.128Z,70.19
2017-09-07T20:00:37.547Z,70.30
2017-09-07T20:03:04.995Z,69.70
2017-09-07T20:05:32.395Z,69.69
2017-09-07T20:07:59.774Z,69.07
2017-09-07T20:10:27.175Z,69.57
2017-09-07T20:12:54.592Z,70.41
2017-09-07T20:15:21.970Z,69.49
2017-09-07T20:17:49.362Z,69.64
2017-09-07T20:20:16.766Z,69.44
2017-09-07T20:22:44.164Z,69.42
2017-09-07T20:28:01.926Z,69.76
2017-09-07T20:30:29.323Z,69.45
2017-09-07T20:32:57.724Z,69.01
2017-09-07T20:35:25.119Z,69.24
2017-09-07T20:37:52.511Z,69.55
2017-09-07T20:40:19.915Z,69.14
2017-09-07T20:42:47.311Z,69.09
2017-09-07T20:45:14.715Z,69.25
2017-09-07T20:47:42.103Z,68.87
2017-09-07T20:50:09.495Z,69.54
2017-09-07T20:52:36.907Z,69.06
2017-09-07T20:55:04.295Z,69.50
2017-09-07T20:57:31.723Z,69.31
2017-09-07T20:59:59.115Z,68.99
2017-09-07T21:02:26.511Z,69.31
2017-09-07T21:04:53.903Z,69.60
2017-09-07T21:07:21.330Z,69.46
2017-09-07T21:09:48.730Z,69.86
2017-09-07T21:12:16.122Z,68.87
2017-09-07T21:14:43.525Z,68.69
2017-09-07T21:17:10.910Z,68.98
2017-09-07T21:19:38.302Z,68.64
2017-09-07T21:22:05.706Z,69.35
2017-09-07T21:24:33.259Z,71.63
2017-09-07T21:27:00.654Z,70.89
2017-09-07T21:29:28.067Z,70.38
2017-09-07T21:31:55.467Z,70.44
2017-09-07T21:34:22.963Z,70.82
2017-09-07T21:36:50.394Z,70.08
2017-09-07T21:39:17.785Z,71.10
2017-09-07T21:41:45.174Z,70.66
2017-09-07T21:44:12.575Z,71.19
2017-09-07T21:46:39.972Z,70.71
2017-09-07T21:49:07.384Z,70.72
2017-09-07T21:51:34.758Z,70.90
2017-09-07T21:54:02.163Z,71.92
2017-09-07T21:56:29.551Z,72.11
2017-09-07T21:58:57.020Z,74.19
2017-09-07T22:01:24.411Z,74.05
2017-09-07T22:03:51.827Z,73.48
2017-09-07T22:06:19.219Z,74.28
2017-09-07T22:08:46.618Z,74.57
2017-09-07T22:11:14.015Z,73.15
2017-09-07T22:13:41.420Z,73.80
2017-09-07T22:16:08.803Z,74.15
2017-09-07T22:18:36.206Z,74.48
2017-09-07T22:21:03.619Z,74.55
2017-09-07T22:23:31.075Z,75.25
2017-09-07T22:25:58.503Z,74.11
2017-09-07T22:28:25.907Z,74.82
2017-09-07T22:30:53.306Z,74.50
2017-09-07T22:33:20.691Z,74.25
2017-09-07T22:35:48.091Z,73.87
2017-09-07T22:38:15.507Z,74.78
2017-09-07T22:40:42.971Z,75.66
2017-09-07T22:43:10.377Z,75.37
2017-09-07T22:45:37.774Z,74.55
2017-09-07T22:48:05.167Z,74.33
2017-09-07T22:50:32.597Z,73.76
2017-09-07T22:53:00.039Z,75.00
2017-09-07T22:55:27.451Z,76.75
2017-09-07T22:57:54.848Z,75.95
2017-09-07T23:00:22.251Z,76.14
2017-09-07T23:02:49.656Z,75.23
2017-09-07T23:05:17.051Z,74.69
2017-09-07T23:07:44.452Z,74.26
2017-09-07T23:10:11.874Z,75.06
2017-09-07T23:12:39.266Z,74.37
2017-09-07T23:15:06.674Z,73.68
2017-09-07T23:17:34.067Z,74.19
2017-09-07T23:20:01.475Z,73.27
2017-09-07T23:22:28.872Z,73.56
2017-09-07T23:24:56.263Z,73.80
2017-09-07T23:27:23.662Z,73.24
2017-09-07T23:29:51.068Z,73.00
2017-09-07T23:32:18.499Z,73.01
2017-09-07T23:34:45.897Z,72.75
2017-09-07T23:37:13.299Z,73.65
2017-09-07T23:39:40.794Z,72.46
2017-09-07T23:42:08.207Z,73.15
2017-09-07T23:44:35.602Z,73.75
2017-09-07T23:47:03.087Z,72.39
2017-09-07T23:49:30.483Z,72.60
2017-09-07T23:51:57.885Z,74.35
2017-09-07T23:54:25.347Z,74.35
2017-09-07T23:56:52.739Z,74.31
2017-09-07T23:59:20.149Z,73.97
